This is the latest recevied weather packets stored in our database for station/object YM2KRB-11. If no packets are shown the sender has not sent any weather packets the latest 10 day(s).
| Time | Temp. | Humidity | Pressure | Rain* | Wind** | Luminosity | Snow |
|---|---|---|---|---|---|---|---|
| 1777528744 | 17.22° C | 38% | 944.4 hPa | - | - | - | - |
| 1777527543 | 15.56° C | 38% | 944.4 hPa | - | - | - | - |
| 1777526342 | 16.67° C | 37% | 944.5 hPa | - | - | - | - |
| 1777525141 | 15° C | 40% | 944.6 hPa | - | - | - | - |
| 1777523941 | 13.33° C | 42% | 944.6 hPa | - | - | - | - |
| 1777522740 | 13.33° C | 42% | 944.7 hPa | - | - | - | - |
| 1777521539 | 13.33° C | 42% | 944.8 hPa | - | - | - | - |
| 1777520338 | 11.67° C | 47% | 945.1 hPa | - | - | - | - |
| 1777519137 | 7.22° C | 58% | 944.3 hPa | - | - | - | - |
| 1777517936 | 6.11° C | 59% | 944.2 hPa | - | - | - | - |
| 1777516736 | 6.67° C | 58% | 944.2 hPa | - | - | - | - |
| 1777515535 | 7.22° C | 57% | 944.1 hPa | - | - | - | - |
| 1777514334 | 6.67° C | 58% | 944 hPa | - | - | - | - |
| 1777513133 | 7.22° C | 57% | 944.1 hPa | - | - | - | - |
| 1777511932 | 7.22° C | 55% | 944.2 hPa | - | - | - | - |
| 1777510732 | 7.78° C | 59% | 944.2 hPa | - | - | - | - |
| 1777509531 | 7.78° C | 56% | 944.3 hPa | - | - | - | - |
| 1777508330 | 8.33° C | 56% | 944.3 hPa | - | - | - | - |
| 1777507129 | 7.78° C | 56% | 944.4 hPa | - | - | - | - |
| 1777505929 | 8.33° C | 58% | 944.3 hPa | - | - | - | - |
| 1777504728 | 8.33° C | 56% | 944.2 hPa | - | - | - | - |
| 1777503527 | 8.89° C | 54% | 944.3 hPa | - | - | - | - |
| 1777502326 | 8.89° C | 49% | 944.3 hPa | - | - | - | - |
| 1777501125 | 8.89° C | 46% | 944.2 hPa | - | - | - | - |
| 1777499925 | 9.44° C | 46% | 944.3 hPa | - | - | - | - |
* Rain since midnight (hover to see other rain measurements)
** Current wind speed in m/s (hover to see current wind gust speed)